Washington, District of Columbia
Traffic Map
Current Weather Conditions
Washington, District of Columbia
Overcast
Overcast

Feels Like: 5°
Wind Chill: Ceiling: 2500
Heat Index: Visibility: 10mi
Dew Point: Wind: 5mph
Humidity: 71% Direction: 180° (S)
Pressure: 30.36in Gusts: 0mph
Raw Report DataKDCA 170052Z 18004KT 10SM OVC025 06/01 A3036 RMK AO2 SLP280 T00610011
Traffic Incident Summary
Active as of:
Severity:
Category:
InformationThere was an issue retrieving the traffic information for this location. Please try a different location or try again shortly.
Advertisements
Track Severe Weather on mobile